sensor_id;sensor_type;location;lat;lon;timestamp;P1;durP1;ratioP1;P2;durP2;ratioP2
33010;SDS011;19370;48.562;9.196;2024-03-07T00:01:48;38.58;;;19.35;;
33010;SDS011;19370;48.562;9.196;2024-03-07T00:04:32;38.93;;;17.83;;
33010;SDS011;19370;48.562;9.196;2024-03-07T00:07:39;40.55;;;18.48;;
33010;SDS011;19370;48.562;9.196;2024-03-07T00:10:29;38.22;;;17.98;;
33010;SDS011;19370;48.562;9.196;2024-03-07T00:13:14;39.78;;;18.00;;
33010;SDS011;19370;48.562;9.196;2024-03-07T00:15:51;39.05;;;17.27;;
33010;SDS011;19370;48.562;9.196;2024-03-07T00:19:01;39.07;;;18.37;;
33010;SDS011;19370;48.562;9.196;2024-03-07T00:21:41;39.33;;;16.80;;
33010;SDS011;19370;48.562;9.196;2024-03-07T00:24:22;39.30;;;18.00;;
33010;SDS011;19370;48.562;9.196;2024-03-07T00:26:55;35.40;;;16.30;;
33010;SDS011;19370;48.562;9.196;2024-03-07T00:29:32;36.22;;;16.67;;
33010;SDS011;19370;48.562;9.196;2024-03-07T00:32:20;36.67;;;16.40;;
33010;SDS011;19370;48.562;9.196;2024-03-07T00:34:49;38.33;;;17.45;;
33010;SDS011;19370;48.562;9.196;2024-03-07T00:37:18;37.35;;;17.83;;
33010;SDS011;19370;48.562;9.196;2024-03-07T00:40:00;36.25;;;16.23;;
33010;SDS011;19370;48.562;9.196;2024-03-07T00:42:26;35.83;;;16.80;;
33010;SDS011;19370;48.562;9.196;2024-03-07T00:44:52;40.40;;;17.13;;
33010;SDS011;19370;48.562;9.196;2024-03-07T00:47:35;37.42;;;17.25;;
33010;SDS011;19370;48.562;9.196;2024-03-07T00:50:06;37.43;;;17.57;;
33010;SDS011;19370;48.562;9.196;2024-03-07T00:52:33;35.67;;;16.33;;
33010;SDS011;19370;48.562;9.196;2024-03-07T00:55:04;40.10;;;17.98;;
33010;SDS011;19370;48.562;9.196;2024-03-07T00:58:00;38.20;;;17.63;;
33010;SDS011;19370;48.562;9.196;2024-03-07T01:00:35;38.60;;;17.85;;
33010;SDS011;19370;48.562;9.196;2024-03-07T01:03:01;36.63;;;18.00;;
33010;SDS011;19370;48.562;9.196;2024-03-07T01:05:26;36.13;;;17.07;;
33010;SDS011;19370;48.562;9.196;2024-03-07T01:07:53;36.17;;;16.90;;
33010;SDS011;19370;48.562;9.196;2024-03-07T01:10:21;39.10;;;18.47;;
33010;SDS011;19370;48.562;9.196;2024-03-07T01:12:47;35.90;;;17.02;;
33010;SDS011;19370;48.562;9.196;2024-03-07T01:15:14;38.45;;;18.45;;
33010;SDS011;19370;48.562;9.196;2024-03-07T01:17:40;41.43;;;17.37;;
33010;SDS011;19370;48.562;9.196;2024-03-07T01:20:06;38.72;;;17.63;;
33010;SDS011;19370;48.562;9.196;2024-03-07T01:22:32;38.05;;;17.42;;
33010;SDS011;19370;48.562;9.196;2024-03-07T01:24:58;39.53;;;18.80;;
33010;SDS011;19370;48.562;9.196;2024-03-07T01:27:23;40.13;;;19.00;;
33010;SDS011;19370;48.562;9.196;2024-03-07T01:29:49;36.75;;;16.48;;
33010;SDS011;19370;48.562;9.196;2024-03-07T01:32:15;40.45;;;17.73;;
33010;SDS011;19370;48.562;9.196;2024-03-07T01:34:40;38.73;;;17.80;;
33010;SDS011;19370;48.562;9.196;2024-03-07T01:37:06;39.87;;;18.33;;
33010;SDS011;19370;48.562;9.196;2024-03-07T01:39:33;34.70;;;16.33;;
33010;SDS011;19370;48.562;9.196;2024-03-07T01:41:59;38.70;;;17.80;;
33010;SDS011;19370;48.562;9.196;2024-03-07T01:44:27;39.25;;;19.25;;
33010;SDS011;19370;48.562;9.196;2024-03-07T01:46:54;39.45;;;17.70;;
33010;SDS011;19370;48.562;9.196;2024-03-07T01:49:19;38.55;;;19.25;;
33010;SDS011;19370;48.562;9.196;2024-03-07T01:51:45;41.80;;;19.33;;
33010;SDS011;19370;48.562;9.196;2024-03-07T01:54:11;41.60;;;19.75;;
33010;SDS011;19370;48.562;9.196;2024-03-07T01:56:37;44.20;;;19.57;;
33010;SDS011;19370;48.562;9.196;2024-03-07T01:59:03;40.97;;;19.13;;
33010;SDS011;19370;48.562;9.196;2024-03-07T02:01:32;39.65;;;18.40;;
33010;SDS011;19370;48.562;9.196;2024-03-07T02:03:58;44.60;;;19.90;;
33010;SDS011;19370;48.562;9.196;2024-03-07T02:06:24;41.00;;;19.07;;
33010;SDS011;19370;48.562;9.196;2024-03-07T02:08:51;43.15;;;19.15;;
33010;SDS011;19370;48.562;9.196;2024-03-07T02:11:17;44.57;;;19.90;;
33010;SDS011;19370;48.562;9.196;2024-03-07T02:13:43;42.65;;;19.95;;
33010;SDS011;19370;48.562;9.196;2024-03-07T02:16:08;47.50;;;20.00;;
33010;SDS011;19370;48.562;9.196;2024-03-07T02:18:35;45.05;;;20.60;;
33010;SDS011;19370;48.562;9.196;2024-03-07T02:21:07;42.13;;;19.95;;
33010;SDS011;19370;48.562;9.196;2024-03-07T02:23:34;45.60;;;20.67;;
33010;SDS011;19370;48.562;9.196;2024-03-07T02:25:59;49.83;;;21.77;;
33010;SDS011;19370;48.562;9.196;2024-03-07T02:28:25;52.53;;;22.33;;
33010;SDS011;19370;48.562;9.196;2024-03-07T02:30:51;48.65;;;21.73;;
33010;SDS011;19370;48.562;9.196;2024-03-07T02:33:16;43.80;;;20.53;;
33010;SDS011;19370;48.562;9.196;2024-03-07T02:35:42;47.38;;;20.45;;
33010;SDS011;19370;48.562;9.196;2024-03-07T02:38:07;42.43;;;19.77;;
33010;SDS011;19370;48.562;9.196;2024-03-07T02:40:33;46.60;;;21.30;;
33010;SDS011;19370;48.562;9.196;2024-03-07T02:42:59;46.00;;;21.55;;
33010;SDS011;19370;48.562;9.196;2024-03-07T02:45:25;43.72;;;21.05;;
33010;SDS011;19370;48.562;9.196;2024-03-07T02:47:51;44.53;;;20.75;;
33010;SDS011;19370;48.562;9.196;2024-03-07T02:50:18;44.43;;;20.17;;
33010;SDS011;19370;48.562;9.196;2024-03-07T02:52:45;46.17;;;20.77;;
33010;SDS011;19370;48.562;9.196;2024-03-07T02:55:10;46.87;;;22.10;;
33010;SDS011;19370;48.562;9.196;2024-03-07T02:57:36;49.67;;;20.52;;
33010;SDS011;19370;48.562;9.196;2024-03-07T03:00:02;46.00;;;21.53;;
33010;SDS011;19370;48.562;9.196;2024-03-07T03:02:38;45.65;;;20.48;;
33010;SDS011;19370;48.562;9.196;2024-03-07T03:05:04;51.70;;;21.92;;
33010;SDS011;19370;48.562;9.196;2024-03-07T03:07:33;46.03;;;21.42;;
33010;SDS011;19370;48.562;9.196;2024-03-07T03:09:58;44.00;;;21.60;;
33010;SDS011;19370;48.562;9.196;2024-03-07T03:12:24;44.47;;;21.10;;
33010;SDS011;19370;48.562;9.196;2024-03-07T03:14:50;44.53;;;21.38;;
33010;SDS011;19370;48.562;9.196;2024-03-07T03:17:15;46.73;;;20.87;;
33010;SDS011;19370;48.562;9.196;2024-03-07T03:19:41;46.30;;;21.45;;
33010;SDS011;19370;48.562;9.196;2024-03-07T03:22:09;46.67;;;20.83;;
33010;SDS011;19370;48.562;9.196;2024-03-07T03:24:34;45.85;;;21.33;;
33010;SDS011;19370;48.562;9.196;2024-03-07T03:27:01;48.03;;;21.25;;
33010;SDS011;19370;48.562;9.196;2024-03-07T03:29:26;45.77;;;21.03;;
33010;SDS011;19370;48.562;9.196;2024-03-07T03:31:53;44.80;;;20.73;;
33010;SDS011;19370;48.562;9.196;2024-03-07T03:34:20;46.67;;;21.05;;
33010;SDS011;19370;48.562;9.196;2024-03-07T03:36:46;45.40;;;21.30;;
33010;SDS011;19370;48.562;9.196;2024-03-07T03:39:11;46.63;;;21.52;;
33010;SDS011;19370;48.562;9.196;2024-03-07T03:41:38;46.73;;;22.07;;
33010;SDS011;19370;48.562;9.196;2024-03-07T03:44:03;45.55;;;21.02;;
33010;SDS011;19370;48.562;9.196;2024-03-07T03:46:29;44.57;;;20.93;;
33010;SDS011;19370;48.562;9.196;2024-03-07T03:48:54;43.10;;;20.03;;
33010;SDS011;19370;48.562;9.196;2024-03-07T03:51:20;45.15;;;21.08;;
33010;SDS011;19370;48.562;9.196;2024-03-07T03:53:47;51.10;;;22.65;;
33010;SDS011;19370;48.562;9.196;2024-03-07T03:56:12;47.23;;;20.20;;
33010;SDS011;19370;48.562;9.196;2024-03-07T03:58:39;49.87;;;21.43;;
33010;SDS011;19370;48.562;9.196;2024-03-07T04:01:05;46.05;;;21.17;;
33010;SDS011;19370;48.562;9.196;2024-03-07T04:03:33;47.00;;;21.67;;
33010;SDS011;19370;48.562;9.196;2024-03-07T04:05:58;47.23;;;22.37;;
33010;SDS011;19370;48.562;9.196;2024-03-07T04:08:24;47.90;;;21.33;;
33010;SDS011;19370;48.562;9.196;2024-03-07T04:10:49;46.90;;;20.80;;
33010;SDS011;19370;48.562;9.196;2024-03-07T04:13:15;49.07;;;21.20;;
33010;SDS011;19370;48.562;9.196;2024-03-07T04:15:40;47.10;;;21.50;;
33010;SDS011;19370;48.562;9.196;2024-03-07T04:18:06;49.05;;;22.08;;
33010;SDS011;19370;48.562;9.196;2024-03-07T04:20:32;47.90;;;22.33;;
33010;SDS011;19370;48.562;9.196;2024-03-07T04:22:58;43.63;;;20.87;;
33010;SDS011;19370;48.562;9.196;2024-03-07T04:25:23;45.23;;;21.17;;
33010;SDS011;19370;48.562;9.196;2024-03-07T04:27:50;49.67;;;22.67;;
33010;SDS011;19370;48.562;9.196;2024-03-07T04:30:16;46.83;;;21.27;;
33010;SDS011;19370;48.562;9.196;2024-03-07T04:32:42;49.17;;;21.40;;
33010;SDS011;19370;48.562;9.196;2024-03-07T04:35:07;43.90;;;20.92;;
33010;SDS011;19370;48.562;9.196;2024-03-07T04:37:35;50.37;;;22.07;;
33010;SDS011;19370;48.562;9.196;2024-03-07T04:40:07;48.88;;;21.48;;
33010;SDS011;19370;48.562;9.196;2024-03-07T04:42:47;45.03;;;21.17;;
33010;SDS011;19370;48.562;9.196;2024-03-07T04:45:16;47.30;;;21.63;;
33010;SDS011;19370;48.562;9.196;2024-03-07T04:47:43;45.50;;;21.48;;
33010;SDS011;19370;48.562;9.196;2024-03-07T04:50:12;46.43;;;21.03;;
33010;SDS011;19370;48.562;9.196;2024-03-07T04:52:42;46.38;;;20.25;;
33010;SDS011;19370;48.562;9.196;2024-03-07T04:55:08;46.47;;;19.98;;
33010;SDS011;19370;48.562;9.196;2024-03-07T04:57:35;48.40;;;21.48;;
33010;SDS011;19370;48.562;9.196;2024-03-07T05:00:03;46.60;;;21.00;;
33010;SDS011;19370;48.562;9.196;2024-03-07T05:02:30;43.47;;;20.80;;
33010;SDS011;19370;48.562;9.196;2024-03-07T05:04:56;43.92;;;19.10;;
33010;SDS011;19370;48.562;9.196;2024-03-07T05:07:21;44.53;;;19.50;;
33010;SDS011;19370;48.562;9.196;2024-03-07T05:09:47;44.23;;;20.73;;
33010;SDS011;19370;48.562;9.196;2024-03-07T05:12:13;47.13;;;20.83;;
33010;SDS011;19370;48.562;9.196;2024-03-07T05:14:39;47.60;;;20.77;;
33010;SDS011;19370;48.562;9.196;2024-03-07T05:17:04;46.50;;;20.10;;
33010;SDS011;19370;48.562;9.196;2024-03-07T05:19:33;43.97;;;20.07;;
33010;SDS011;19370;48.562;9.196;2024-03-07T05:21:59;46.65;;;20.88;;
33010;SDS011;19370;48.562;9.196;2024-03-07T05:24:25;45.60;;;21.10;;
33010;SDS011;19370;48.562;9.196;2024-03-07T05:26:51;42.53;;;19.70;;
33010;SDS011;19370;48.562;9.196;2024-03-07T05:29:18;44.45;;;20.77;;
33010;SDS011;19370;48.562;9.196;2024-03-07T05:31:44;45.40;;;20.25;;
33010;SDS011;19370;48.562;9.196;2024-03-07T05:34:13;42.47;;;19.00;;
33010;SDS011;19370;48.562;9.196;2024-03-07T05:36:39;45.53;;;21.57;;
33010;SDS011;19370;48.562;9.196;2024-03-07T05:39:10;44.72;;;20.83;;
33010;SDS011;19370;48.562;9.196;2024-03-07T05:41:37;43.92;;;20.27;;
33010;SDS011;19370;48.562;9.196;2024-03-07T05:44:02;42.95;;;20.17;;
33010;SDS011;19370;48.562;9.196;2024-03-07T05:46:29;43.22;;;19.73;;
33010;SDS011;19370;48.562;9.196;2024-03-07T05:48:55;42.73;;;20.43;;
33010;SDS011;19370;48.562;9.196;2024-03-07T05:51:24;42.15;;;18.85;;
33010;SDS011;19370;48.562;9.196;2024-03-07T05:53:50;44.40;;;20.97;;
33010;SDS011;19370;48.562;9.196;2024-03-07T05:56:16;41.17;;;19.40;;
33010;SDS011;19370;48.562;9.196;2024-03-07T05:58:42;41.10;;;19.38;;
33010;SDS011;19370;48.562;9.196;2024-03-07T06:01:08;41.80;;;18.37;;
33010;SDS011;19370;48.562;9.196;2024-03-07T06:03:34;39.45;;;19.10;;
33010;SDS011;19370;48.562;9.196;2024-03-07T06:06:00;39.57;;;17.47;;
33010;SDS011;19370;48.562;9.196;2024-03-07T06:08:25;41.75;;;18.40;;
33010;SDS011;19370;48.562;9.196;2024-03-07T14:36:43;42.88;;;19.75;;
33010;SDS011;19370;48.562;9.196;2024-03-07T14:39:11;40.13;;;20.52;;
33010;SDS011;19370;48.562;9.196;2024-03-07T14:41:49;35.75;;;18.27;;
33010;SDS011;19370;48.562;9.196;2024-03-07T14:44:17;39.30;;;19.23;;
33010;SDS011;19370;48.562;9.196;2024-03-07T14:46:44;36.65;;;17.48;;
33010;SDS011;19370;48.562;9.196;2024-03-07T14:49:14;36.25;;;18.27;;
33010;SDS011;19370;48.562;9.196;2024-03-07T14:51:42;37.95;;;19.02;;
33010;SDS011;19370;48.562;9.196;2024-03-07T14:54:08;38.97;;;18.53;;
33010;SDS011;19370;48.562;9.196;2024-03-07T14:56:34;34.80;;;17.67;;
33010;SDS011;19370;48.562;9.196;2024-03-07T14:59:00;36.00;;;17.55;;
33010;SDS011;19370;48.562;9.196;2024-03-07T15:01:30;38.30;;;19.33;;
33010;SDS011;19370;48.562;9.196;2024-03-07T15:03:58;39.88;;;19.65;;
33010;SDS011;19370;48.562;9.196;2024-03-07T15:06:26;40.80;;;19.67;;
33010;SDS011;19370;48.562;9.196;2024-03-07T15:08:52;38.85;;;19.30;;
33010;SDS011;19370;48.562;9.196;2024-03-07T15:11:23;40.67;;;19.77;;
33010;SDS011;19370;48.562;9.196;2024-03-07T15:13:58;41.60;;;20.00;;
33010;SDS011;19370;48.562;9.196;2024-03-07T15:16:25;37.42;;;18.33;;
33010;SDS011;19370;48.562;9.196;2024-03-07T15:18:51;38.63;;;19.73;;
33010;SDS011;19370;48.562;9.196;2024-03-07T15:21:18;37.97;;;19.73;;
33010;SDS011;19370;48.562;9.196;2024-03-07T15:23:46;40.37;;;18.87;;
33010;SDS011;19370;48.562;9.196;2024-03-07T15:26:12;39.17;;;19.50;;
33010;SDS011;19370;48.562;9.196;2024-03-07T15:28:40;39.63;;;19.77;;
33010;SDS011;19370;48.562;9.196;2024-03-07T15:31:06;37.43;;;18.77;;
33010;SDS011;19370;48.562;9.196;2024-03-07T15:33:34;39.65;;;19.20;;
33010;SDS011;19370;48.562;9.196;2024-03-07T15:36:00;39.33;;;19.42;;
33010;SDS011;19370;48.562;9.196;2024-03-07T15:38:27;36.83;;;18.30;;
33010;SDS011;19370;48.562;9.196;2024-03-07T15:41:00;35.40;;;17.35;;
33010;SDS011;19370;48.562;9.196;2024-03-07T15:43:29;35.50;;;16.52;;
33010;SDS011;19370;48.562;9.196;2024-03-07T15:45:55;44.83;;;20.73;;
33010;SDS011;19370;48.562;9.196;2024-03-07T15:48:24;33.13;;;15.90;;
33010;SDS011;19370;48.562;9.196;2024-03-07T15:50:51;34.35;;;17.15;;
33010;SDS011;19370;48.562;9.196;2024-03-07T15:53:18;32.20;;;15.38;;
33010;SDS011;19370;48.562;9.196;2024-03-07T15:55:44;34.17;;;16.20;;
33010;SDS011;19370;48.562;9.196;2024-03-07T15:58:10;32.37;;;15.57;;
33010;SDS011;19370;48.562;9.196;2024-03-07T16:00:36;30.75;;;15.65;;
33010;SDS011;19370;48.562;9.196;2024-03-07T16:03:06;33.35;;;15.48;;
33010;SDS011;19370;48.562;9.196;2024-03-07T16:05:36;34.60;;;16.97;;
33010;SDS011;19370;48.562;9.196;2024-03-07T16:08:07;34.65;;;16.33;;
33010;SDS011;19370;48.562;9.196;2024-03-07T16:10:35;32.00;;;16.65;;
33010;SDS011;19370;48.562;9.196;2024-03-07T16:13:02;32.03;;;15.43;;
33010;SDS011;19370;48.562;9.196;2024-03-07T16:15:32;33.60;;;15.50;;
33010;SDS011;19370;48.562;9.196;2024-03-07T16:17:58;32.33;;;16.17;;
33010;SDS011;19370;48.562;9.196;2024-03-07T16:20:25;44.08;;;21.17;;
33010;SDS011;19370;48.562;9.196;2024-03-07T16:22:51;42.45;;;22.45;;
33010;SDS011;19370;48.562;9.196;2024-03-07T16:25:17;34.53;;;17.07;;
33010;SDS011;19370;48.562;9.196;2024-03-07T16:27:47;35.08;;;17.30;;
33010;SDS011;19370;48.562;9.196;2024-03-07T16:30:15;32.85;;;17.02;;
33010;SDS011;19370;48.562;9.196;2024-03-07T16:32:43;32.80;;;16.42;;
33010;SDS011;19370;48.562;9.196;2024-03-07T16:35:12;32.15;;;16.67;;
33010;SDS011;19370;48.562;9.196;2024-03-07T16:37:42;34.47;;;15.80;;
33010;SDS011;19370;48.562;9.196;2024-03-07T16:40:10;34.20;;;17.42;;
33010;SDS011;19370;48.562;9.196;2024-03-07T16:42:37;37.60;;;19.33;;
33010;SDS011;19370;48.562;9.196;2024-03-07T16:45:20;33.83;;;17.30;;
33010;SDS011;19370;48.562;9.196;2024-03-07T16:47:48;33.72;;;16.83;;
33010;SDS011;19370;48.562;9.196;2024-03-07T16:50:20;37.23;;;18.07;;
33010;SDS011;19370;48.562;9.196;2024-03-07T16:52:56;32.75;;;17.42;;
33010;SDS011;19370;48.562;9.196;2024-03-07T16:55:22;32.38;;;16.95;;
33010;SDS011;19370;48.562;9.196;2024-03-07T16:57:49;37.45;;;17.90;;
33010;SDS011;19370;48.562;9.196;2024-03-07T17:00:19;35.70;;;16.85;;
33010;SDS011;19370;48.562;9.196;2024-03-07T17:03:02;36.00;;;18.20;;
33010;SDS011;19370;48.562;9.196;2024-03-07T17:05:33;37.38;;;19.10;;
33010;SDS011;19370;48.562;9.196;2024-03-07T17:08:03;36.42;;;18.27;;
33010;SDS011;19370;48.562;9.196;2024-03-07T17:10:30;37.70;;;19.25;;
33010;SDS011;19370;48.562;9.196;2024-03-07T17:13:00;42.00;;;22.80;;
33010;SDS011;19370;48.562;9.196;2024-03-07T17:15:26;44.73;;;23.27;;
33010;SDS011;19370;48.562;9.196;2024-03-07T17:17:52;38.03;;;19.58;;
33010;SDS011;19370;48.562;9.196;2024-03-07T17:20:21;34.42;;;18.70;;
33010;SDS011;19370;48.562;9.196;2024-03-07T17:22:53;37.05;;;18.33;;
33010;SDS011;19370;48.562;9.196;2024-03-07T17:25:20;37.67;;;19.27;;
33010;SDS011;19370;48.562;9.196;2024-03-07T17:27:47;34.77;;;17.53;;
33010;SDS011;19370;48.562;9.196;2024-03-07T17:30:18;35.67;;;16.55;;
33010;SDS011;19370;48.562;9.196;2024-03-07T17:33:03;35.25;;;17.40;;
33010;SDS011;19370;48.562;9.196;2024-03-07T17:35:31;31.60;;;15.80;;
33010;SDS011;19370;48.562;9.196;2024-03-07T17:38:06;32.38;;;16.48;;
33010;SDS011;19370;48.562;9.196;2024-03-07T17:40:35;34.87;;;17.33;;
33010;SDS011;19370;48.562;9.196;2024-03-07T17:43:01;31.73;;;16.80;;
33010;SDS011;19370;48.562;9.196;2024-03-07T17:45:30;32.85;;;16.77;;
33010;SDS011;19370;48.562;9.196;2024-03-07T17:48:00;31.17;;;14.88;;
33010;SDS011;19370;48.562;9.196;2024-03-07T17:50:27;32.40;;;15.73;;
33010;SDS011;19370;48.562;9.196;2024-03-07T17:52:54;28.50;;;15.10;;
33010;SDS011;19370;48.562;9.196;2024-03-07T17:55:43;35.10;;;16.75;;
33010;SDS011;19370;48.562;9.196;2024-03-07T17:58:09;34.70;;;18.42;;
33010;SDS011;19370;48.562;9.196;2024-03-07T18:00:36;35.40;;;18.05;;
33010;SDS011;19370;48.562;9.196;2024-03-07T18:03:02;34.13;;;17.67;;
33010;SDS011;19370;48.562;9.196;2024-03-07T18:05:34;35.25;;;18.00;;
33010;SDS011;19370;48.562;9.196;2024-03-07T18:08:06;33.10;;;16.90;;
33010;SDS011;19370;48.562;9.196;2024-03-07T18:10:35;30.85;;;16.50;;
33010;SDS011;19370;48.562;9.196;2024-03-07T18:13:02;33.23;;;17.90;;
33010;SDS011;19370;48.562;9.196;2024-03-07T18:15:28;34.38;;;18.15;;
33010;SDS011;19370;48.562;9.196;2024-03-07T18:17:54;30.95;;;17.20;;
33010;SDS011;19370;48.562;9.196;2024-03-07T18:20:26;31.50;;;15.50;;
33010;SDS011;19370;48.562;9.196;2024-03-07T18:22:56;32.05;;;16.15;;
33010;SDS011;19370;48.562;9.196;2024-03-07T18:25:23;32.30;;;16.50;;
33010;SDS011;19370;48.562;9.196;2024-03-07T18:27:53;33.05;;;17.88;;
33010;SDS011;19370;48.562;9.196;2024-03-07T18:30:23;34.53;;;17.67;;
33010;SDS011;19370;48.562;9.196;2024-03-07T18:32:50;52.25;;;27.38;;
33010;SDS011;19370;48.562;9.196;2024-03-07T18:35:16;34.28;;;19.02;;
33010;SDS011;19370;48.562;9.196;2024-03-07T18:37:43;32.75;;;18.27;;
33010;SDS011;19370;48.562;9.196;2024-03-07T18:40:12;34.05;;;18.05;;
33010;SDS011;19370;48.562;9.196;2024-03-07T18:42:42;34.30;;;18.23;;
33010;SDS011;19370;48.562;9.196;2024-03-07T18:45:12;31.98;;;17.48;;
33010;SDS011;19370;48.562;9.196;2024-03-07T18:47:43;38.10;;;20.38;;
33010;SDS011;19370;48.562;9.196;2024-03-07T18:50:23;37.22;;;18.38;;
33010;SDS011;19370;48.562;9.196;2024-03-07T18:52:51;38.13;;;20.05;;
33010;SDS011;19370;48.562;9.196;2024-03-07T18:55:23;32.53;;;17.20;;
33010;SDS011;19370;48.562;9.196;2024-03-07T18:58:02;32.33;;;16.10;;
33010;SDS011;19370;48.562;9.196;2024-03-07T19:00:30;31.98;;;16.08;;
33010;SDS011;19370;48.562;9.196;2024-03-07T19:03:01;33.88;;;16.90;;
33010;SDS011;19370;48.562;9.196;2024-03-07T19:05:28;34.50;;;16.80;;
33010;SDS011;19370;48.562;9.196;2024-03-07T19:07:58;33.43;;;17.60;;
33010;SDS011;19370;48.562;9.196;2024-03-07T19:10:26;35.80;;;17.17;;
33010;SDS011;19370;48.562;9.196;2024-03-07T19:12:57;38.95;;;17.83;;
33010;SDS011;19370;48.562;9.196;2024-03-07T19:15:24;30.98;;;16.27;;
33010;SDS011;19370;48.562;9.196;2024-03-07T19:17:50;30.75;;;16.20;;
33010;SDS011;19370;48.562;9.196;2024-03-07T19:20:16;29.93;;;15.53;;
33010;SDS011;19370;48.562;9.196;2024-03-07T19:22:49;31.08;;;15.68;;
33010;SDS011;19370;48.562;9.196;2024-03-07T19:25:20;29.95;;;15.30;;
33010;SDS011;19370;48.562;9.196;2024-03-07T19:27:47;33.43;;;16.63;;
33010;SDS011;19370;48.562;9.196;2024-03-07T19:30:17;33.03;;;16.20;;
33010;SDS011;19370;48.562;9.196;2024-03-07T19:32:45;33.25;;;16.90;;
33010;SDS011;19370;48.562;9.196;2024-03-07T19:35:11;30.55;;;15.95;;
33010;SDS011;19370;48.562;9.196;2024-03-07T19:37:42;34.67;;;16.98;;
33010;SDS011;19370;48.562;9.196;2024-03-07T19:40:10;29.73;;;15.30;;
33010;SDS011;19370;48.562;9.196;2024-03-07T19:42:38;30.67;;;16.67;;
33010;SDS011;19370;48.562;9.196;2024-03-07T19:45:05;28.63;;;15.57;;
33010;SDS011;19370;48.562;9.196;2024-03-07T19:47:31;28.35;;;14.38;;
33010;SDS011;19370;48.562;9.196;2024-03-07T19:49:57;30.17;;;15.07;;
33010;SDS011;19370;48.562;9.196;2024-03-07T19:52:22;27.60;;;14.48;;
33010;SDS011;19370;48.562;9.196;2024-03-07T19:54:49;26.87;;;13.90;;
33010;SDS011;19370;48.562;9.196;2024-03-07T19:57:16;25.67;;;13.48;;
33010;SDS011;19370;48.562;9.196;2024-03-07T19:59:44;25.15;;;13.20;;
33010;SDS011;19370;48.562;9.196;2024-03-07T20:02:11;23.98;;;12.35;;
33010;SDS011;19370;48.562;9.196;2024-03-07T20:04:37;25.23;;;12.40;;
33010;SDS011;19370;48.562;9.196;2024-03-07T20:07:03;24.48;;;12.57;;
33010;SDS011;19370;48.562;9.196;2024-03-07T20:09:28;25.83;;;12.73;;
33010;SDS011;19370;48.562;9.196;2024-03-07T20:11:56;27.23;;;13.23;;
33010;SDS011;19370;48.562;9.196;2024-03-07T20:14:22;26.35;;;13.35;;
33010;SDS011;19370;48.562;9.196;2024-03-07T20:16:48;22.50;;;12.47;;
33010;SDS011;19370;48.562;9.196;2024-03-07T20:19:13;25.00;;;12.32;;
33010;SDS011;19370;48.562;9.196;2024-03-07T20:21:39;23.07;;;11.27;;
33010;SDS011;19370;48.562;9.196;2024-03-07T20:24:05;22.10;;;10.87;;
33010;SDS011;19370;48.562;9.196;2024-03-07T20:26:35;21.90;;;11.02;;
33010;SDS011;19370;48.562;9.196;2024-03-07T20:29:00;25.83;;;13.65;;
33010;SDS011;19370;48.562;9.196;2024-03-07T20:31:28;24.60;;;12.80;;
33010;SDS011;19370;48.562;9.196;2024-03-07T20:33:55;24.43;;;11.93;;
33010;SDS011;19370;48.562;9.196;2024-03-07T20:36:23;23.80;;;12.75;;
33010;SDS011;19370;48.562;9.196;2024-03-07T20:38:50;24.65;;;13.30;;
33010;SDS011;19370;48.562;9.196;2024-03-07T20:41:16;24.17;;;12.55;;
33010;SDS011;19370;48.562;9.196;2024-03-07T20:43:41;24.57;;;11.63;;
33010;SDS011;19370;48.562;9.196;2024-03-07T20:46:07;22.75;;;11.95;;
33010;SDS011;19370;48.562;9.196;2024-03-07T20:48:33;23.53;;;12.07;;
33010;SDS011;19370;48.562;9.196;2024-03-07T20:50:59;24.33;;;12.20;;
33010;SDS011;19370;48.562;9.196;2024-03-07T20:53:25;24.40;;;12.73;;
33010;SDS011;19370;48.562;9.196;2024-03-07T20:55:57;26.35;;;13.73;;
33010;SDS011;19370;48.562;9.196;2024-03-07T20:58:24;25.90;;;12.55;;
33010;SDS011;19370;48.562;9.196;2024-03-07T21:00:52;26.27;;;12.95;;
33010;SDS011;19370;48.562;9.196;2024-03-07T21:03:18;26.40;;;13.87;;
33010;SDS011;19370;48.562;9.196;2024-03-07T21:05:49;25.98;;;13.27;;
33010;SDS011;19370;48.562;9.196;2024-03-07T21:08:15;26.98;;;13.23;;
33010;SDS011;19370;48.562;9.196;2024-03-07T21:10:41;25.27;;;12.98;;
33010;SDS011;19370;48.562;9.196;2024-03-07T21:13:09;24.98;;;12.43;;
33010;SDS011;19370;48.562;9.196;2024-03-07T21:15:36;25.43;;;12.70;;
33010;SDS011;19370;48.562;9.196;2024-03-07T21:18:02;26.73;;;12.88;;
33010;SDS011;19370;48.562;9.196;2024-03-07T21:20:32;26.92;;;13.75;;
33010;SDS011;19370;48.562;9.196;2024-03-07T21:22:59;25.23;;;13.20;;
33010;SDS011;19370;48.562;9.196;2024-03-07T21:25:33;25.50;;;13.23;;
33010;SDS011;19370;48.562;9.196;2024-03-07T21:28:02;24.97;;;13.03;;
33010;SDS011;19370;48.562;9.196;2024-03-07T21:30:29;27.13;;;13.05;;
33010;SDS011;19370;48.562;9.196;2024-03-07T21:32:55;26.48;;;13.73;;
33010;SDS011;19370;48.562;9.196;2024-03-07T21:35:21;25.83;;;13.63;;
33010;SDS011;19370;48.562;9.196;2024-03-07T21:37:47;24.58;;;11.93;;
33010;SDS011;19370;48.562;9.196;2024-03-07T21:40:14;26.67;;;14.13;;
33010;SDS011;19370;48.562;9.196;2024-03-07T21:42:47;28.83;;;13.57;;
33010;SDS011;19370;48.562;9.196;2024-03-07T21:45:14;26.55;;;13.77;;
33010;SDS011;19370;48.562;9.196;2024-03-07T21:47:41;25.73;;;13.35;;
33010;SDS011;19370;48.562;9.196;2024-03-07T21:50:07;25.88;;;13.00;;
33010;SDS011;19370;48.562;9.196;2024-03-07T21:52:39;27.65;;;13.85;;
33010;SDS011;19370;48.562;9.196;2024-03-07T21:55:12;26.60;;;13.23;;
33010;SDS011;19370;48.562;9.196;2024-03-07T21:57:38;26.02;;;13.32;;
33010;SDS011;19370;48.562;9.196;2024-03-07T22:00:10;26.15;;;13.05;;
33010;SDS011;19370;48.562;9.196;2024-03-07T22:02:49;27.23;;;13.15;;
33010;SDS011;19370;48.562;9.196;2024-03-07T22:05:16;25.42;;;13.48;;
33010;SDS011;19370;48.562;9.196;2024-03-07T22:07:44;25.77;;;13.67;;
33010;SDS011;19370;48.562;9.196;2024-03-07T22:10:10;27.38;;;13.75;;
33010;SDS011;19370;48.562;9.196;2024-03-07T22:12:38;27.83;;;13.35;;
33010;SDS011;19370;48.562;9.196;2024-03-07T22:15:04;28.67;;;14.20;;
33010;SDS011;19370;48.562;9.196;2024-03-07T22:17:31;27.15;;;13.70;;
33010;SDS011;19370;48.562;9.196;2024-03-07T22:19:57;25.47;;;13.57;;
33010;SDS011;19370;48.562;9.196;2024-03-07T22:22:23;27.35;;;13.50;;
33010;SDS011;19370;48.562;9.196;2024-03-07T22:24:49;26.15;;;12.60;;
33010;SDS011;19370;48.562;9.196;2024-03-07T22:27:17;26.95;;;12.98;;
33010;SDS011;19370;48.562;9.196;2024-03-07T22:29:42;26.70;;;12.97;;
33010;SDS011;19370;48.562;9.196;2024-03-07T22:32:09;27.30;;;12.82;;
33010;SDS011;19370;48.562;9.196;2024-03-07T22:34:38;26.85;;;13.23;;
33010;SDS011;19370;48.562;9.196;2024-03-07T22:37:05;26.00;;;13.03;;
33010;SDS011;19370;48.562;9.196;2024-03-07T22:39:33;27.70;;;13.63;;
33010;SDS011;19370;48.562;9.196;2024-03-07T22:41:59;27.00;;;13.73;;
33010;SDS011;19370;48.562;9.196;2024-03-07T22:44:25;25.67;;;13.50;;
33010;SDS011;19370;48.562;9.196;2024-03-07T22:46:51;28.40;;;13.57;;
33010;SDS011;19370;48.562;9.196;2024-03-07T22:49:18;27.02;;;13.43;;
33010;SDS011;19370;48.562;9.196;2024-03-07T22:51:46;24.20;;;12.13;;
33010;SDS011;19370;48.562;9.196;2024-03-07T22:54:12;28.67;;;13.70;;